Time;durP1;ratioP1;P1;durP2;ratioP2;P2;SDS_P1;SDS_P2;PMS_P1;PMS_P2;Temp;Humidity;BMP_temperature;BMP_pressure;BME280_temperature;BME280_humidity;BME280_pressure;Samples;Min_cycle;Max_cycle;Signal;HPM_P1;HPM_P2
2022/03/11 00:00:22;;;;;;;;;;;21.10;26.10;;;;;;484829;246;1053;-39
2022/03/11 00:02:24;;;;;;;;;;;21.10;26.00;;;;;;484597;246;1196;-39
2022/03/11 00:04:25;;;;;;;;;;;21.10;26.10;;;;;;484751;246;994;-39
2022/03/11 00:06:26;;;;;;;;;;;21.10;26.10;;;;;;484495;246;1169;-39
2022/03/11 00:08:28;;;;;;;;;;;21.10;26.00;;;;;;484681;246;1211;-39
2022/03/11 00:10:29;;;;;;;;;;;21.10;26.00;;;;;;484386;246;2132;-39
2022/03/11 00:12:30;;;;;;;;;;;21.10;26.00;;;;;;484442;246;1334;-39
2022/03/11 00:14:31;;;;;;;;;;;21.00;26.00;;;;;;484383;246;1240;-39
2022/03/11 00:16:34;;;;;;;;;;;21.10;26.10;;;;;;484315;246;1180;-39
2022/03/11 00:18:34;;;;;;;;;;;21.10;26.10;;;;;;484339;246;1951;-39
2022/03/11 00:20:36;;;;;;;;;;;21.10;26.10;;;;;;484710;246;1153;-39
2022/03/11 00:22:37;;;;;;;;;;;21.10;26.00;;;;;;484775;246;1087;-39
2022/03/11 00:24:38;;;;;;;;;;;21.10;26.00;;;;;;484557;246;1079;-39
2022/03/11 00:26:40;;;;;;;;;;;21.10;26.00;;;;;;484380;246;1041;-39
2022/03/11 00:28:41;;;;;;;;;;;21.10;26.00;;;;;;484551;246;1053;-39
2022/03/11 00:30:43;;;;;;;;;;;21.10;26.00;;;;;;484723;246;2152;-39
2022/03/11 00:32:44;;;;;;;;;;;21.10;26.00;;;;;;484378;246;1178;-39
2022/03/11 00:34:45;;;;;;;;;;;21.10;26.10;;;;;;484862;246;1409;-39
2022/03/11 00:36:47;;;;;;;;;;;21.10;26.10;;;;;;484377;246;1167;-39
2022/03/11 00:38:48;;;;;;;;;;;21.00;26.00;;;;;;484825;246;1074;-39
2022/03/11 00:40:51;;;;;;;;;;;21.10;26.10;;;;;;484345;246;1188;-39
2022/03/11 00:42:50;;;;;;;;;;;21.10;26.10;;;;;;484188;246;1424;-39
2022/03/11 00:44:52;;;;;;;;;;;21.10;26.00;;;;;;484507;246;1044;-39
2022/03/11 00:46:53;;;;;;;;;;;21.10;26.00;;;;;;484703;246;984;-39
2022/03/11 00:48:54;;;;;;;;;;;21.10;26.00;;;;;;484841;246;1717;-39
2022/03/11 00:50:56;;;;;;;;;;;21.10;26.00;;;;;;484500;246;2132;-39
2022/03/11 00:52:57;;;;;;;;;;;21.10;26.00;;;;;;484400;246;1065;-39
2022/03/11 00:54:58;;;;;;;;;;;21.10;26.00;;;;;;484673;246;1051;-39
2022/03/11 00:57:00;;;;;;;;;;;21.10;26.00;;;;;;484831;246;1061;-39
2022/03/11 00:59:01;;;;;;;;;;;21.10;26.00;;;;;;484400;246;1053;-39
2022/03/11 01:01:02;;;;;;;;;;;21.10;26.00;;;;;;484542;246;1021;-39
2022/03/11 01:03:04;;;;;;;;;;;21.10;26.00;;;;;;484824;246;1077;-39
2022/03/11 01:05:05;;;;;;;;;;;21.10;26.00;;;;;;484601;246;1472;-39
2022/03/11 01:07:06;;;;;;;;;;;21.10;26.00;;;;;;484412;246;1311;-39
2022/03/11 01:09:08;;;;;;;;;;;21.10;26.00;;;;;;484375;246;1057;-39
2022/03/11 01:11:11;;;;;;;;;;;21.10;26.10;;;;;;484278;246;2180;-39
2022/03/11 01:13:10;;;;;;;;;;;21.10;26.10;;;;;;484330;246;2211;-39
2022/03/11 01:15:12;;;;;;;;;;;21.10;26.00;;;;;;484491;246;1146;-39
2022/03/11 01:17:13;;;;;;;;;;;21.10;26.00;;;;;;484406;246;1257;-39
2022/03/11 01:19:15;;;;;;;;;;;21.10;26.10;;;;;;484486;246;1065;-39
2022/03/11 01:21:16;;;;;;;;;;;21.10;26.10;;;;;;484595;246;1213;-39
2022/03/11 01:23:17;;;;;;;;;;;21.10;26.10;;;;;;484844;246;1060;-39
2022/03/11 01:25:19;;;;;;;;;;;21.10;26.10;;;;;;484816;246;1234;-39
2022/03/11 01:27:20;;;;;;;;;;;21.10;26.00;;;;;;484347;246;1070;-39
2022/03/11 01:29:22;;;;;;;;;;;21.10;26.00;;;;;;484640;246;1054;-39
2022/03/11 01:31:23;;;;;;;;;;;21.10;26.00;;;;;;484427;246;2120;-39
2022/03/11 01:33:24;;;;;;;;;;;21.10;26.10;;;;;;484368;246;1081;-39
2022/03/11 01:35:25;;;;;;;;;;;21.10;26.10;;;;;;484843;246;1031;-39
2022/03/11 01:37:27;;;;;;;;;;;21.00;26.10;;;;;;484413;246;1357;-39
2022/03/11 01:39:28;;;;;;;;;;;21.10;26.10;;;;;;484486;246;1066;-39
2022/03/11 01:41:29;;;;;;;;;;;21.10;26.10;;;;;;484379;246;1478;-39
2022/03/11 01:43:31;;;;;;;;;;;21.10;26.00;;;;;;484837;246;1183;-39
2022/03/11 01:45:32;;;;;;;;;;;21.10;26.10;;;;;;484391;246;1077;-39
2022/03/11 01:47:33;;;;;;;;;;;21.00;26.10;;;;;;484652;246;1237;-39
2022/03/11 01:49:35;;;;;;;;;;;21.10;26.10;;;;;;484629;246;1064;-39
2022/03/11 01:51:36;;;;;;;;;;;21.00;26.10;;;;;;484449;246;2109;-39
2022/03/11 01:53:37;;;;;;;;;;;21.10;26.10;;;;;;484707;246;1059;-39
2022/03/11 01:55:39;;;;;;;;;;;21.00;26.10;;;;;;484857;246;1060;-39
2022/03/11 01:57:40;;;;;;;;;;;21.10;26.10;;;;;;484406;246;1040;-39
2022/03/11 01:59:42;;;;;;;;;;;21.10;26.00;;;;;;484651;246;1091;-39
2022/03/11 02:01:43;;;;;;;;;;;21.10;26.00;;;;;;484750;246;1125;-39
2022/03/11 02:03:44;;;;;;;;;;;21.10;26.10;;;;;;484800;246;1005;-39
2022/03/11 02:05:46;;;;;;;;;;;21.10;26.10;;;;;;484742;246;1158;-39
2022/03/11 02:07:47;;;;;;;;;;;21.00;26.10;;;;;;484389;246;1138;-39
2022/03/11 02:09:48;;;;;;;;;;;21.10;26.10;;;;;;484871;246;1083;-39
2022/03/11 02:11:50;;;;;;;;;;;21.10;26.10;;;;;;484428;246;2179;-39
2022/03/11 02:13:51;;;;;;;;;;;21.10;26.10;;;;;;484667;246;1037;-39
2022/03/11 02:15:52;;;;;;;;;;;21.00;26.10;;;;;;484810;246;1412;-39
2022/03/11 02:17:54;;;;;;;;;;;21.10;26.10;;;;;;484602;246;1083;-39
2022/03/11 02:19:55;;;;;;;;;;;21.10;26.00;;;;;;484734;246;1054;-39
2022/03/11 02:21:57;;;;;;;;;;;21.10;26.00;;;;;;484587;246;1327;-39
2022/03/11 02:23:58;;;;;;;;;;;21.00;26.00;;;;;;484835;246;1073;-39
2022/03/11 02:25:59;;;;;;;;;;;21.10;26.10;;;;;;484576;246;1164;-39
2022/03/11 02:28:00;;;;;;;;;;;21.10;26.10;;;;;;484393;246;1251;-39
2022/03/11 02:30:02;;;;;;;;;;;21.00;26.00;;;;;;484404;246;1067;-39
2022/03/11 02:32:03;;;;;;;;;;;21.00;26.10;;;;;;484534;246;2116;-39
2022/03/11 02:34:04;;;;;;;;;;;21.00;26.00;;;;;;484516;246;1083;-39
2022/03/11 02:36:05;;;;;;;;;;;21.00;26.00;;;;;;484320;246;1203;-39
2022/03/11 02:38:07;;;;;;;;;;;21.10;26.10;;;;;;484457;246;1184;-39
2022/03/11 02:40:08;;;;;;;;;;;21.10;26.00;;;;;;484400;246;1041;-39
2022/03/11 02:42:10;;;;;;;;;;;21.10;26.00;;;;;;484386;246;1351;-39
2022/03/11 02:44:11;;;;;;;;;;;21.00;26.00;;;;;;484736;246;2297;-39
2022/03/11 02:46:12;;;;;;;;;;;21.00;26.00;;;;;;484846;246;1080;-39
2022/03/11 02:48:13;;;;;;;;;;;21.00;26.00;;;;;;484347;246;1133;-39
2022/03/11 02:50:15;;;;;;;;;;;21.10;26.00;;;;;;484487;246;2112;-39
2022/03/11 02:52:16;;;;;;;;;;;21.10;26.00;;;;;;484771;245;1332;-39
2022/03/11 02:54:17;;;;;;;;;;;21.10;26.00;;;;;;483946;245;1057;-39
2022/03/11 02:56:21;;;;;;;;;;;21.00;26.00;;;;;;484364;245;997;-39
2022/03/11 02:58:20;;;;;;;;;;;21.10;26.00;;;;;;484578;246;2256;-39
2022/03/11 03:00:21;;;;;;;;;;;21.10;26.00;;;;;;484815;246;1061;-39
2022/03/11 03:02:23;;;;;;;;;;;21.00;25.90;;;;;;484955;246;1183;-39
2022/03/11 03:04:24;;;;;;;;;;;21.10;26.00;;;;;;484458;246;1061;-39
2022/03/11 03:06:26;;;;;;;;;;;21.10;26.00;;;;;;484386;246;1150;-39
2022/03/11 03:08:27;;;;;;;;;;;21.10;26.00;;;;;;484448;246;1230;-39
2022/03/11 03:10:28;;;;;;;;;;;21.00;26.00;;;;;;484738;246;2183;-39
2022/03/11 03:12:30;;;;;;;;;;;21.00;26.00;;;;;;484372;246;1066;-39
2022/03/11 03:14:31;;;;;;;;;;;21.10;26.00;;;;;;484411;246;1018;-39
2022/03/11 03:16:32;;;;;;;;;;;21.00;26.00;;;;;;484570;246;1044;-39
2022/03/11 03:18:34;;;;;;;;;;;21.00;26.00;;;;;;484828;246;1169;-39
2022/03/11 03:20:35;;;;;;;;;;;21.00;26.00;;;;;;484690;246;1073;-39
2022/03/11 03:22:36;;;;;;;;;;;21.00;26.00;;;;;;484576;245;1254;-39
2022/03/11 03:24:37;;;;;;;;;;;21.00;26.00;;;;;;485429;245;1108;-39
2022/03/11 03:26:39;;;;;;;;;;;21.10;26.00;;;;;;484827;245;1108;-39
2022/03/11 03:28:40;;;;;;;;;;;21.00;26.00;;;;;;484866;246;1084;-39
2022/03/11 03:30:41;;;;;;;;;;;21.00;26.00;;;;;;484832;246;2128;-39
2022/03/11 03:32:43;;;;;;;;;;;21.00;26.00;;;;;;484513;246;1053;-39
2022/03/11 03:34:44;;;;;;;;;;;21.00;25.90;;;;;;484410;246;1051;-39
2022/03/11 03:36:45;;;;;;;;;;;21.00;26.00;;;;;;484375;246;1061;-39
2022/03/11 03:38:47;;;;;;;;;;;21.00;26.00;;;;;;484563;246;1141;-39
2022/03/11 03:40:48;;;;;;;;;;;21.00;26.00;;;;;;484275;246;1249;-39
2022/03/11 03:42:50;;;;;;;;;;;21.00;26.00;;;;;;484438;246;1623;-39
2022/03/11 03:44:53;;;;;;;;;;;21.00;26.00;;;;;;484437;246;1043;-39
2022/03/11 03:46:52;;;;;;;;;;;21.00;26.00;;;;;;484141;246;2185;-39
2022/03/11 03:48:53;;;;;;;;;;;21.00;26.00;;;;;;484813;246;1171;-39
2022/03/11 03:50:55;;;;;;;;;;;21.00;25.90;;;;;;484652;246;2128;-39
2022/03/11 03:52:56;;;;;;;;;;;21.00;25.90;;;;;;484360;246;1577;-39
2022/03/11 03:54:57;;;;;;;;;;;21.00;25.90;;;;;;484812;246;1076;-39
2022/03/11 03:56:58;;;;;;;;;;;21.10;26.00;;;;;;484504;246;1498;-39
2022/03/11 03:59:04;;;;;;;;;;;21.00;25.90;;;;;;484449;246;1074;-39
2022/03/11 04:01:01;;;;;;;;;;;21.00;25.90;;;;;;484109;246;1795;-39
2022/03/11 04:03:03;;;;;;;;;;;21.00;25.90;;;;;;484842;246;1029;-39
2022/03/11 04:05:04;;;;;;;;;;;21.00;26.00;;;;;;484766;246;1050;-39
2022/03/11 04:07:05;;;;;;;;;;;21.00;26.00;;;;;;484596;246;1081;-39
2022/03/11 04:09:07;;;;;;;;;;;21.00;26.00;;;;;;484589;246;1137;-39
2022/03/11 04:11:08;;;;;;;;;;;21.00;26.00;;;;;;484569;246;2191;-39
2022/03/11 04:13:10;;;;;;;;;;;21.00;26.00;;;;;;484393;246;1173;-39
2022/03/11 04:15:11;;;;;;;;;;;21.00;26.00;;;;;;484843;246;1082;-39
2022/03/11 04:17:12;;;;;;;;;;;21.10;26.00;;;;;;484598;246;1147;-39
2022/03/11 04:19:14;;;;;;;;;;;21.00;26.00;;;;;;484842;246;1088;-39
2022/03/11 04:21:15;;;;;;;;;;;21.00;26.00;;;;;;484587;246;1460;-39
2022/03/11 04:23:16;;;;;;;;;;;21.00;26.00;;;;;;484367;246;1312;-39
2022/03/11 04:25:18;;;;;;;;;;;21.00;26.00;;;;;;484656;246;1062;-39
2022/03/11 04:27:19;;;;;;;;;;;21.00;25.90;;;;;;484345;246;1200;-39
2022/03/11 04:29:20;;;;;;;;;;;21.10;26.00;;;;;;484862;246;1084;-39
2022/03/11 04:31:22;;;;;;;;;;;21.10;26.00;;;;;;484353;246;2183;-39
2022/03/11 04:33:23;;;;;;;;;;;21.10;25.90;;;;;;484361;246;1054;-39
2022/03/11 04:35:24;;;;;;;;;;;21.00;25.90;;;;;;484392;246;1071;-39
2022/03/11 04:37:25;;;;;;;;;;;21.00;26.00;;;;;;484468;246;1045;-39
2022/03/11 04:39:27;;;;;;;;;;;21.10;26.00;;;;;;484561;246;1214;-39
2022/03/11 04:41:28;;;;;;;;;;;21.00;26.00;;;;;;484333;246;1203;-39
2022/03/11 04:43:29;;;;;;;;;;;21.00;26.00;;;;;;484517;246;1061;-39
2022/03/11 04:45:31;;;;;;;;;;;21.00;26.00;;;;;;484338;246;1103;-39
2022/03/11 04:47:32;;;;;;;;;;;21.10;26.00;;;;;;484465;246;1284;-39
2022/03/11 04:49:33;;;;;;;;;;;21.10;26.00;;;;;;484471;246;1071;-39
2022/03/11 04:51:35;;;;;;;;;;;21.10;26.00;;;;;;484292;246;2141;-39
2022/03/11 04:53:36;;;;;;;;;;;21.10;26.00;;;;;;484371;246;1305;-39
2022/03/11 04:55:37;;;;;;;;;;;21.10;26.00;;;;;;484552;246;1069;-39
2022/03/11 04:57:39;;;;;;;;;;;21.10;26.00;;;;;;484324;246;1308;-39
2022/03/11 04:59:40;;;;;;;;;;;21.00;26.00;;;;;;484391;246;1084;-39
2022/03/11 05:01:41;;;;;;;;;;;21.10;26.00;;;;;;484431;246;1214;-39
2022/03/11 05:03:43;;;;;;;;;;;21.00;26.00;;;;;;484546;246;1072;-39
2022/03/11 05:05:44;;;;;;;;;;;21.00;26.00;;;;;;484655;246;1377;-39
2022/03/11 05:07:45;;;;;;;;;;;21.00;26.00;;;;;;484450;246;1214;-39
2022/03/11 05:09:47;;;;;;;;;;;21.00;26.00;;;;;;484406;246;1114;-39
2022/03/11 05:11:48;;;;;;;;;;;21.00;26.00;;;;;;484442;246;2156;-39
2022/03/11 05:13:49;;;;;;;;;;;21.00;26.00;;;;;;484539;246;1068;-39
2022/03/11 05:15:50;;;;;;;;;;;21.10;26.00;;;;;;484517;246;1421;-39
2022/03/11 05:17:52;;;;;;;;;;;21.10;26.00;;;;;;484325;246;1172;-39
2022/03/11 05:19:53;;;;;;;;;;;21.10;26.00;;;;;;484267;246;1111;-39
2022/03/11 05:21:54;;;;;;;;;;;21.00;26.00;;;;;;484268;246;1327;-39
2022/03/11 05:23:56;;;;;;;;;;;21.00;26.00;;;;;;484322;246;1162;-39
2022/03/11 05:25:57;;;;;;;;;;;21.10;26.00;;;;;;484521;246;1496;-39
2022/03/11 05:27:58;;;;;;;;;;;21.00;26.00;;;;;;484331;246;1064;-39
2022/03/11 05:30:00;;;;;;;;;;;21.10;26.00;;;;;;484350;246;1121;-39
2022/03/11 05:32:01;;;;;;;;;;;21.10;26.00;;;;;;484711;246;2116;-39
2022/03/11 05:34:02;;;;;;;;;;;21.00;26.00;;;;;;484822;246;1070;-39
2022/03/11 05:36:04;;;;;;;;;;;21.00;25.90;;;;;;484481;246;1153;-39
2022/03/11 05:38:05;;;;;;;;;;;21.10;26.00;;;;;;484344;246;1224;-39
2022/03/11 05:40:06;;;;;;;;;;;21.10;26.00;;;;;;484454;246;1187;-39
2022/03/11 05:42:08;;;;;;;;;;;21.10;26.00;;;;;;484349;246;1223;-39
2022/03/11 05:44:09;;;;;;;;;;;21.00;26.00;;;;;;484733;246;1070;-39
2022/03/11 05:46:10;;;;;;;;;;;21.10;26.00;;;;;;484419;246;1531;-39
2022/03/11 05:48:12;;;;;;;;;;;21.10;26.00;;;;;;484246;246;1334;-39
2022/03/11 05:50:13;;;;;;;;;;;21.10;25.90;;;;;;484291;246;1130;-39
2022/03/11 05:52:14;;;;;;;;;;;21.10;26.00;;;;;;484408;246;2128;-39
2022/03/11 05:54:15;;;;;;;;;;;21.10;26.00;;;;;;484252;246;1139;-39
2022/03/11 05:56:17;;;;;;;;;;;21.10;26.00;;;;;;484170;246;1135;-39
2022/03/11 05:58:18;;;;;;;;;;;21.10;26.00;;;;;;484321;246;1073;-39
2022/03/11 06:00:19;;;;;;;;;;;21.10;26.00;;;;;;484196;246;1058;-39
2022/03/11 06:02:21;;;;;;;;;;;21.10;25.90;;;;;;484234;246;1056;-39
2022/03/11 06:04:22;;;;;;;;;;;21.10;26.00;;;;;;484281;246;1107;-39
2022/03/11 06:06:23;;;;;;;;;;;21.10;26.00;;;;;;484332;246;1116;-39
2022/03/11 06:08:25;;;;;;;;;;;21.10;26.00;;;;;;484177;246;1083;-39
2022/03/11 06:10:26;;;;;;;;;;;21.10;26.00;;;;;;484204;246;1183;-39
2022/03/11 06:12:28;;;;;;;;;;;21.10;26.00;;;;;;483843;246;2180;-39
2022/03/11 06:14:29;;;;;;;;;;;21.10;26.00;;;;;;484618;246;1095;-39
2022/03/11 06:16:30;;;;;;;;;;;21.10;26.00;;;;;;484306;246;1115;-39
2022/03/11 06:18:32;;;;;;;;;;;21.10;26.00;;;;;;484437;246;1187;-39
2022/03/11 06:20:34;;;;;;;;;;;21.10;26.10;;;;;;484196;246;1061;-39
2022/03/11 06:22:35;;;;;;;;;;;21.10;26.00;;;;;;484006;246;2532;-39
2022/03/11 06:24:36;;;;;;;;;;;21.10;26.00;;;;;;484192;246;1056;-39
2022/03/11 06:26:37;;;;;;;;;;;21.10;26.00;;;;;;484365;246;1070;-39
2022/03/11 06:28:38;;;;;;;;;;;21.10;26.00;;;;;;484417;246;1076;-39
2022/03/11 06:30:40;;;;;;;;;;;21.10;26.00;;;;;;484169;246;1186;-39
2022/03/11 06:32:41;;;;;;;;;;;21.10;26.00;;;;;;484264;246;2187;-39
2022/03/11 06:34:43;;;;;;;;;;;21.10;26.00;;;;;;484127;246;1086;-39
2022/03/11 06:36:44;;;;;;;;;;;21.10;26.00;;;;;;484104;246;1059;-39
2022/03/11 06:38:46;;;;;;;;;;;21.10;26.00;;;;;;484242;246;1074;-39
2022/03/11 06:40:49;;;;;;;;;;;21.10;26.00;;;;;;484251;246;1204;-39
2022/03/11 06:42:49;;;;;;;;;;;21.10;26.00;;;;;;484088;246;2349;-39
2022/03/11 06:44:50;;;;;;;;;;;21.10;26.00;;;;;;484194;246;1142;-39
2022/03/11 06:46:51;;;;;;;;;;;21.10;26.00;;;;;;484038;246;1215;-39
2022/03/11 06:48:53;;;;;;;;;;;21.10;26.00;;;;;;483963;246;1074;-39
2022/03/11 06:50:54;;;;;;;;;;;21.10;26.00;;;;;;484008;246;1275;-39
2022/03/11 06:52:56;;;;;;;;;;;21.00;26.10;;;;;;484053;246;2192;-39
2022/03/11 06:54:57;;;;;;;;;;;21.10;26.10;;;;;;484031;246;1070;-39
2022/03/11 06:56:58;;;;;;;;;;;21.10;26.00;;;;;;483919;246;1252;-39
2022/03/11 06:58:59;;;;;;;;;;;21.10;26.10;;;;;;484070;246;1090;-39
2022/03/11 07:01:01;;;;;;;;;;;21.10;26.00;;;;;;483953;246;1088;-39
2022/03/11 07:03:02;;;;;;;;;;;21.10;26.00;;;;;;483978;246;1093;-39
2022/03/11 07:05:03;;;;;;;;;;;21.10;26.00;;;;;;484046;246;1101;-39
2022/03/11 07:07:05;;;;;;;;;;;21.10;26.00;;;;;;484068;246;1058;-39
2022/03/11 07:09:06;;;;;;;;;;;21.10;26.00;;;;;;484268;246;1061;-39
2022/03/11 07:11:07;;;;;;;;;;;21.10;26.00;;;;;;484036;246;1141;-39
2022/03/11 07:13:09;;;;;;;;;;;21.10;26.10;;;;;;484049;246;2203;-39
2022/03/11 07:15:10;;;;;;;;;;;21.10;26.00;;;;;;484101;246;1143;-39
2022/03/11 07:17:11;;;;;;;;;;;21.10;26.00;;;;;;483967;246;1078;-39
2022/03/11 07:19:13;;;;;;;;;;;21.10;26.00;;;;;;484004;246;1083;-39
2022/03/11 07:21:14;;;;;;;;;;;21.10;26.00;;;;;;484109;246;1319;-39
2022/03/11 07:23:15;;;;;;;;;;;21.10;26.00;;;;;;484056;246;1109;-39
2022/03/11 07:25:17;;;;;;;;;;;21.10;26.00;;;;;;484039;246;1122;-39
2022/03/11 07:27:18;;;;;;;;;;;21.10;25.90;;;;;;483942;246;1330;-39
2022/03/11 07:29:19;;;;;;;;;;;21.10;25.90;;;;;;484063;246;1081;-39
2022/03/11 07:31:21;;;;;;;;;;;21.10;26.00;;;;;;484153;246;1259;-39
2022/03/11 07:33:22;;;;;;;;;;;21.10;25.90;;;;;;483987;246;2128;-39
2022/03/11 07:35:23;;;;;;;;;;;21.10;25.90;;;;;;483999;246;1099;-39
2022/03/11 07:37:24;;;;;;;;;;;21.20;25.90;;;;;;483916;246;1068;-39
2022/03/11 07:39:26;;;;;;;;;;;21.20;25.90;;;;;;484123;246;1082;-39
2022/03/11 07:41:28;;;;;;;;;;;21.10;25.90;;;;;;484001;246;1180;-39
2022/03/11 07:43:28;;;;;;;;;;;21.20;25.90;;;;;;483866;246;2369;-39
2022/03/11 07:45:30;;;;;;;;;;;21.10;25.90;;;;;;483831;246;1161;-39
2022/03/11 07:47:31;;;;;;;;;;;21.10;25.90;;;;;;483853;246;1400;-39
2022/03/11 07:49:32;;;;;;;;;;;21.10;25.80;;;;;;483874;246;1078;-39
2022/03/11 07:51:34;;;;;;;;;;;21.10;25.80;;;;;;484019;246;1066;-39
2022/03/11 07:53:35;;;;;;;;;;;21.10;25.80;;;;;;483840;246;2175;-39
2022/03/11 07:55:36;;;;;;;;;;;21.10;25.80;;;;;;483855;246;1442;-39
2022/03/11 07:57:39;;;;;;;;;;;21.10;25.90;;;;;;483809;246;1225;-39
2022/03/11 07:59:41;;;;;;;;;;;21.10;25.90;;;;;;483641;246;2086;-39
2022/03/11 08:01:41;;;;;;;;;;;21.10;25.80;;;;;;483608;246;2129;-39
2022/03/11 08:03:42;;;;;;;;;;;21.10;25.80;;;;;;483920;246;1111;-39
2022/03/11 08:05:43;;;;;;;;;;;21.10;25.80;;;;;;483850;246;1072;-39
2022/03/11 08:07:45;;;;;;;;;;;21.10;25.90;;;;;;483765;246;1155;-39
2022/03/11 08:09:47;;;;;;;;;;;21.10;25.80;;;;;;483848;246;1195;-39
2022/03/11 08:11:47;;;;;;;;;;;21.10;25.80;;;;;;483597;246;2431;-39
2022/03/11 08:13:49;;;;;;;;;;;21.10;25.80;;;;;;483960;246;2207;-39
2022/03/11 08:15:50;;;;;;;;;;;21.10;25.80;;;;;;483750;246;1155;-39
2022/03/11 08:17:52;;;;;;;;;;;21.10;25.70;;;;;;483720;246;1129;-39
2022/03/11 08:19:53;;;;;;;;;;;21.10;25.80;;;;;;483588;246;1133;-39
2022/03/11 08:21:56;;;;;;;;;;;21.10;25.80;;;;;;483600;246;1093;-39
2022/03/11 08:23:56;;;;;;;;;;;21.10;25.80;;;;;;483644;246;2282;-39
2022/03/11 08:25:57;;;;;;;;;;;21.10;25.80;;;;;;483715;246;1103;-39
2022/03/11 08:27:58;;;;;;;;;;;21.10;25.70;;;;;;483716;246;1177;-39
2022/03/11 08:30:00;;;;;;;;;;;21.10;25.80;;;;;;483687;246;1068;-39
2022/03/11 08:32:02;;;;;;;;;;;21.10;25.70;;;;;;483719;246;1304;-39
2022/03/11 08:34:03;;;;;;;;;;;21.20;25.70;;;;;;483792;246;2434;-39
2022/03/11 08:36:04;;;;;;;;;;;21.10;25.70;;;;;;483764;246;1164;-39
2022/03/11 08:38:06;;;;;;;;;;;21.20;25.70;;;;;;483741;246;1195;-39
2022/03/11 08:40:06;;;;;;;;;;;21.20;25.70;;;;;;483775;246;2045;-39
2022/03/11 08:42:08;;;;;;;;;;;21.20;25.70;;;;;;484136;245;1285;-39
2022/03/11 08:44:09;;;;;;;;;;;21.20;25.70;;;;;;485036;245;1118;-39
2022/03/11 08:46:11;;;;;;;;;;;21.20;25.70;;;;;;485007;245;1094;-39
2022/03/11 08:48:12;;;;;;;;;;;21.20;25.70;;;;;;485243;245;1098;-39
2022/03/11 08:50:13;;;;;;;;;;;21.20;25.70;;;;;;485068;245;1262;-39
2022/03/11 08:52:14;;;;;;;;;;;21.20;25.70;;;;;;485172;245;2198;-39
2022/03/11 08:54:16;;;;;;;;;;;21.20;25.70;;;;;;485133;245;1143;-39
2022/03/11 08:56:21;;;;;;;;;;;21.20;25.70;;;;;;484981;245;2193;-39
2022/03/11 08:58:19;;;;;;;;;;;21.20;25.70;;;;;;484809;245;1991;-39
2022/03/11 09:00:20;;;;;;;;;;;21.20;25.70;;;;;;485073;245;1082;-39
2022/03/11 09:02:22;;;;;;;;;;;21.20;25.70;;;;;;484947;245;1153;-39
2022/03/11 09:04:23;;;;;;;;;;;21.20;25.70;;;;;;483691;245;1141;-39
2022/03/11 09:06:25;;;;;;;;;;;21.10;25.70;;;;;;483561;246;1606;-39
2022/03/11 09:08:26;;;;;;;;;;;21.20;25.70;;;;;;483571;246;1288;-39
2022/03/11 09:10:28;;;;;;;;;;;21.20;25.70;;;;;;483515;246;1111;-39
2022/03/11 09:12:29;;;;;;;;;;;21.20;25.70;;;;;;483507;246;2196;-39
2022/03/11 09:14:30;;;;;;;;;;;21.20;25.70;;;;;;483622;246;1057;-39
2022/03/11 09:16:32;;;;;;;;;;;21.20;25.70;;;;;;483636;246;1256;-39
2022/03/11 09:18:33;;;;;;;;;;;21.20;25.60;;;;;;483736;246;1173;-39
2022/03/11 09:20:35;;;;;;;;;;;21.20;25.70;;;;;;483710;246;1069;-39
2022/03/11 09:22:36;;;;;;;;;;;21.30;25.70;;;;;;483581;246;2108;-39
2022/03/11 09:24:39;;;;;;;;;;;21.20;25.70;;;;;;483484;246;1078;-39
2022/03/11 09:26:39;;;;;;;;;;;21.20;25.70;;;;;;483335;246;2312;-39
2022/03/11 09:28:41;;;;;;;;;;;21.20;25.60;;;;;;483683;246;1204;-39
2022/03/11 09:30:42;;;;;;;;;;;21.30;25.60;;;;;;483544;246;1082;-39
2022/03/11 09:32:43;;;;;;;;;;;21.20;25.60;;;;;;483583;246;2175;-39
2022/03/11 09:34:45;;;;;;;;;;;21.20;25.60;;;;;;483579;246;1255;-39
2022/03/11 09:36:46;;;;;;;;;;;21.20;25.60;;;;;;483675;246;1083;-39
2022/03/11 09:38:47;;;;;;;;;;;21.30;25.70;;;;;;483563;246;1272;-39
2022/03/11 09:40:49;;;;;;;;;;;21.30;25.60;;;;;;483471;246;1089;-39
2022/03/11 09:42:51;;;;;;;;;;;21.30;25.60;;;;;;483444;246;1270;-39
2022/03/11 09:44:52;;;;;;;;;;;21.30;25.60;;;;;;483466;246;1161;-39
2022/03/11 09:46:54;;;;;;;;;;;21.20;25.60;;;;;;483553;246;1158;-39
2022/03/11 09:48:55;;;;;;;;;;;21.30;25.60;;;;;;483741;246;1064;-39
2022/03/11 09:50:56;;;;;;;;;;;21.20;25.60;;;;;;483663;246;1144;-39
2022/03/11 09:52:58;;;;;;;;;;;21.20;25.60;;;;;;483556;246;2135;-39
2022/03/11 09:54:59;;;;;;;;;;;21.20;25.60;;;;;;483618;246;1101;-39
2022/03/11 09:57:00;;;;;;;;;;;21.20;25.60;;;;;;483492;246;1080;-39
2022/03/11 09:59:02;;;;;;;;;;;21.30;25.60;;;;;;483401;246;1106;-39
2022/03/11 10:01:03;;;;;;;;;;;21.20;25.60;;;;;;483405;246;1178;-39
2022/03/11 10:03:04;;;;;;;;;;;21.30;25.60;;;;;;483652;246;1098;-39
2022/03/11 10:05:06;;;;;;;;;;;21.20;25.60;;;;;;483676;246;1111;-39
2022/03/11 10:07:07;;;;;;;;;;;21.30;25.60;;;;;;483639;246;1276;-39
2022/03/11 10:09:08;;;;;;;;;;;21.30;25.60;;;;;;483605;246;1063;-39
2022/03/11 10:11:10;;;;;;;;;;;21.30;25.60;;;;;;483511;246;1339;-39
2022/03/11 10:13:11;;;;;;;;;;;21.30;25.60;;;;;;483447;246;2160;-39
2022/03/11 10:15:12;;;;;;;;;;;21.30;25.60;;;;;;483560;246;1083;-39
2022/03/11 10:17:14;;;;;;;;;;;21.30;25.60;;;;;;483518;246;1142;-39
2022/03/11 10:19:15;;;;;;;;;;;21.30;25.60;;;;;;483500;246;1136;-39
2022/03/11 10:21:17;;;;;;;;;;;21.30;25.60;;;;;;483503;246;1139;-39
2022/03/11 10:23:18;;;;;;;;;;;21.20;25.60;;;;;;483662;246;1087;-39
2022/03/11 10:25:19;;;;;;;;;;;21.20;25.60;;;;;;483672;246;1107;-39
2022/03/11 10:27:23;;;;;;;;;;;21.20;25.50;;;;;;483599;246;1084;-39
2022/03/11 10:29:22;;;;;;;;;;;21.30;25.60;;;;;;483365;246;2193;-39
2022/03/11 10:31:24;;;;;;;;;;;21.30;25.60;;;;;;483406;246;1631;-39
2022/03/11 10:33:27;;;;;;;;;;;21.20;25.60;;;;;;483561;246;2140;-39
2022/03/11 10:35:26;;;;;;;;;;;21.30;25.60;;;;;;483613;246;2031;-39
2022/03/11 10:37:28;;;;;;;;;;;21.30;25.60;;;;;;483668;246;1097;-39
2022/03/11 10:39:29;;;;;;;;;;;21.30;25.60;;;;;;483667;246;1123;-39
2022/03/11 10:41:31;;;;;;;;;;;21.30;25.60;;;;;;483566;246;1080;-39
2022/03/11 10:43:33;;;;;;;;;;;21.30;25.60;;;;;;483568;246;1282;-39
2022/03/11 10:45:33;;;;;;;;;;;21.20;25.50;;;;;;483560;246;2326;-39
2022/03/11 10:47:35;;;;;;;;;;;21.30;25.50;;;;;;483637;246;1069;-39
2022/03/11 10:49:36;;;;;;;;;;;21.20;25.50;;;;;;483809;246;1058;-39
2022/03/11 10:51:38;;;;;;;;;;;21.30;25.50;;;;;;483657;246;1095;-39
2022/03/11 10:53:39;;;;;;;;;;;21.30;25.50;;;;;;483597;246;2192;-39
2022/03/11 10:55:41;;;;;;;;;;;21.30;25.60;;;;;;483550;246;1100;-39
2022/03/11 10:57:42;;;;;;;;;;;21.30;25.50;;;;;;483396;246;1121;-39
2022/03/11 10:59:44;;;;;;;;;;;21.30;25.50;;;;;;483550;246;1216;-39
2022/03/11 11:01:45;;;;;;;;;;;21.30;25.50;;;;;;483481;246;1100;-39
2022/03/11 11:03:46;;;;;;;;;;;21.30;25.50;;;;;;483693;246;1102;-39
2022/03/11 11:05:47;;;;;;;;;;;21.30;25.50;;;;;;483665;246;1165;-39
2022/03/11 11:07:49;;;;;;;;;;;21.30;25.50;;;;;;483692;246;1147;-39
2022/03/11 11:09:50;;;;;;;;;;;21.30;25.50;;;;;;483770;246;1086;-39
2022/03/11 11:11:51;;;;;;;;;;;21.20;25.50;;;;;;483722;246;1182;-39
2022/03/11 11:13:53;;;;;;;;;;;21.30;25.60;;;;;;483534;246;2187;-39
2022/03/11 11:15:55;;;;;;;;;;;21.20;25.50;;;;;;483519;246;1074;-39
2022/03/11 11:17:57;;;;;;;;;;;21.20;25.50;;;;;;483587;246;1079;-39
2022/03/11 11:20:00;;;;;;;;;;;21.20;25.50;;;;;;483723;246;1075;-39
2022/03/11 11:21:59;;;;;;;;;;;21.30;25.50;;;;;;483478;246;1793;-39
2022/03/11 11:24:01;;;;;;;;;;;21.30;25.50;;;;;;483851;246;1093;-39
2022/03/11 11:26:02;;;;;;;;;;;21.30;25.40;;;;;;483676;246;1152;-39
2022/03/11 11:28:03;;;;;;;;;;;21.40;25.50;;;;;;483655;246;1115;-39
2022/03/11 11:30:05;;;;;;;;;;;21.30;25.50;;;;;;483722;246;1250;-39
2022/03/11 11:32:06;;;;;;;;;;;21.20;25.50;;;;;;483565;246;1285;-39
2022/03/11 11:34:07;;;;;;;;;;;21.20;25.50;;;;;;483641;246;2133;-39
2022/03/11 11:36:09;;;;;;;;;;;21.20;25.50;;;;;;483641;246;1247;-39
2022/03/11 11:38:10;;;;;;;;;;;21.20;25.50;;;;;;483756;246;1058;-39
2022/03/11 11:40:11;;;;;;;;;;;21.20;25.50;;;;;;483783;246;1056;-39
2022/03/11 11:42:13;;;;;;;;;;;21.30;25.50;;;;;;483622;246;1331;-39
2022/03/11 11:44:14;;;;;;;;;;;21.30;25.50;;;;;;483708;246;1139;-39
2022/03/11 11:46:16;;;;;;;;;;;21.30;25.50;;;;;;483694;246;1422;-39
2022/03/11 11:48:17;;;;;;;;;;;21.30;25.50;;;;;;483669;246;2652;-39
2022/03/11 11:50:18;;;;;;;;;;;21.30;25.50;;;;;;483666;246;1081;-39
2022/03/11 11:52:19;;;;;;;;;;;21.30;25.50;;;;;;483603;246;1060;-39
2022/03/11 11:54:21;;;;;;;;;;;21.30;25.50;;;;;;483577;246;2175;-39
2022/03/11 11:56:22;;;;;;;;;;;21.30;25.40;;;;;;483587;246;1080;-39